sensor_id;sensor_type;location;lat;lon;timestamp;P1;durP1;ratioP1;P2;durP2;ratioP2
14939;SDS011;11825;51.898;8.202;2022-12-08T00:04:22;13.47;;;11.97;;
14939;SDS011;11825;51.898;8.202;2022-12-08T00:09:39;16.23;;;13.77;;
14939;SDS011;11825;51.898;8.202;2022-12-08T00:15:02;19.30;;;16.03;;
14939;SDS011;11825;51.898;8.202;2022-12-08T00:20:05;20.13;;;16.33;;
14939;SDS011;11825;51.898;8.202;2022-12-08T00:25:08;18.87;;;16.37;;
14939;SDS011;11825;51.898;8.202;2022-12-08T00:30:09;20.80;;;15.77;;
14939;SDS011;11825;51.898;8.202;2022-12-08T00:35:18;22.13;;;15.20;;
14939;SDS011;11825;51.898;8.202;2022-12-08T00:40:20;20.53;;;15.00;;
14939;SDS011;11825;51.898;8.202;2022-12-08T00:45:22;17.73;;;13.70;;
14939;SDS011;11825;51.898;8.202;2022-12-08T00:50:24;18.97;;;14.33;;
14939;SDS011;11825;51.898;8.202;2022-12-08T00:55:25;19.63;;;14.40;;
14939;SDS011;11825;51.898;8.202;2022-12-08T01:00:27;16.57;;;13.70;;
14939;SDS011;11825;51.898;8.202;2022-12-08T01:05:29;19.50;;;14.73;;
14939;SDS011;11825;51.898;8.202;2022-12-08T01:10:39;18.53;;;15.37;;
14939;SDS011;11825;51.898;8.202;2022-12-08T01:15:40;17.13;;;13.37;;
14939;SDS011;11825;51.898;8.202;2022-12-08T01:20:42;15.47;;;13.20;;
14939;SDS011;11825;51.898;8.202;2022-12-08T01:25:44;13.87;;;11.50;;
14939;SDS011;11825;51.898;8.202;2022-12-08T01:30:49;19.30;;;14.70;;
14939;SDS011;11825;51.898;8.202;2022-12-08T01:35:54;17.20;;;12.93;;
14939;SDS011;11825;51.898;8.202;2022-12-08T01:40:56;15.03;;;13.50;;
14939;SDS011;11825;51.898;8.202;2022-12-08T01:45:57;21.20;;;12.67;;
14939;SDS011;11825;51.898;8.202;2022-12-08T01:51:02;18.43;;;13.90;;
14939;SDS011;11825;51.898;8.202;2022-12-08T01:56:11;15.43;;;13.80;;
14939;SDS011;11825;51.898;8.202;2022-12-08T02:01:19;17.73;;;13.53;;
14939;SDS011;11825;51.898;8.202;2022-12-08T02:06:21;16.73;;;14.77;;
14939;SDS011;11825;51.898;8.202;2022-12-08T02:11:23;16.63;;;14.83;;
14939;SDS011;11825;51.898;8.202;2022-12-08T02:43:52;28.07;;;21.33;;
14939;SDS011;11825;51.898;8.202;2022-12-08T02:49:19;34.27;;;23.00;;
14939;SDS011;11825;51.898;8.202;2022-12-08T02:54:21;29.77;;;22.00;;
14939;SDS011;11825;51.898;8.202;2022-12-08T03:04:34;35.87;;;23.00;;
14939;SDS011;11825;51.898;8.202;2022-12-08T03:10:00;37.27;;;21.63;;
14939;SDS011;11825;51.898;8.202;2022-12-08T03:15:10;30.47;;;24.80;;
14939;SDS011;11825;51.898;8.202;2022-12-08T03:20:25;29.77;;;24.83;;
14939;SDS011;11825;51.898;8.202;2022-12-08T03:25:35;28.37;;;22.10;;
14939;SDS011;11825;51.898;8.202;2022-12-08T03:30:42;29.03;;;22.37;;
14939;SDS011;11825;51.898;8.202;2022-12-08T03:35:45;26.23;;;22.93;;
14939;SDS011;11825;51.898;8.202;2022-12-08T03:40:47;27.27;;;21.40;;
14939;SDS011;11825;51.898;8.202;2022-12-08T03:46:12;26.50;;;21.67;;
14939;SDS011;11825;51.898;8.202;2022-12-08T03:51:16;24.90;;;22.30;;
14939;SDS011;11825;51.898;8.202;2022-12-08T04:01:22;26.07;;;21.57;;
14939;SDS011;11825;51.898;8.202;2022-12-08T04:06:24;25.53;;;22.03;;
14939;SDS011;11825;51.898;8.202;2022-12-08T04:11:26;24.17;;;21.50;;
14939;SDS011;11825;51.898;8.202;2022-12-08T04:16:28;27.07;;;23.00;;
14939;SDS011;11825;51.898;8.202;2022-12-08T04:21:33;23.93;;;20.37;;
14939;SDS011;11825;51.898;8.202;2022-12-08T04:26:35;28.33;;;24.77;;
14939;SDS011;11825;51.898;8.202;2022-12-08T04:31:40;28.00;;;22.60;;
14939;SDS011;11825;51.898;8.202;2022-12-08T04:36:42;29.17;;;24.23;;
14939;SDS011;11825;51.898;8.202;2022-12-08T04:41:51;28.83;;;24.87;;
14939;SDS011;11825;51.898;8.202;2022-12-08T04:46:53;29.30;;;23.63;;
14939;SDS011;11825;51.898;8.202;2022-12-08T04:51:57;31.30;;;23.50;;
14939;SDS011;11825;51.898;8.202;2022-12-08T04:56:59;29.67;;;22.10;;
14939;SDS011;11825;51.898;8.202;2022-12-08T05:02:01;26.20;;;21.80;;
14939;SDS011;11825;51.898;8.202;2022-12-08T05:07:06;28.27;;;22.30;;
14939;SDS011;11825;51.898;8.202;2022-12-08T05:12:08;26.27;;;21.63;;
14939;SDS011;11825;51.898;8.202;2022-12-08T05:17:13;28.03;;;22.50;;
14939;SDS011;11825;51.898;8.202;2022-12-08T05:22:21;28.30;;;23.20;;
14939;SDS011;11825;51.898;8.202;2022-12-08T05:27:23;28.40;;;22.50;;
14939;SDS011;11825;51.898;8.202;2022-12-08T05:32:24;29.03;;;23.80;;
14939;SDS011;11825;51.898;8.202;2022-12-08T05:37:26;30.40;;;25.50;;
14939;SDS011;11825;51.898;8.202;2022-12-08T05:42:28;34.67;;;27.17;;
14939;SDS011;11825;51.898;8.202;2022-12-08T05:47:33;34.03;;;25.07;;
14939;SDS011;11825;51.898;8.202;2022-12-08T05:52:36;32.40;;;25.27;;
14939;SDS011;11825;51.898;8.202;2022-12-08T05:57:43;34.60;;;26.63;;
14939;SDS011;11825;51.898;8.202;2022-12-08T06:02:45;35.57;;;27.17;;
14939;SDS011;11825;51.898;8.202;2022-12-08T06:07:47;37.27;;;27.60;;
14939;SDS011;11825;51.898;8.202;2022-12-08T06:12:49;38.50;;;28.70;;
14939;SDS011;11825;51.898;8.202;2022-12-08T06:17:57;35.57;;;28.30;;
14939;SDS011;11825;51.898;8.202;2022-12-08T06:22:58;39.03;;;28.37;;
14939;SDS011;11825;51.898;8.202;2022-12-08T06:28:00;37.70;;;26.80;;
14939;SDS011;11825;51.898;8.202;2022-12-08T06:33:04;37.10;;;27.40;;
14939;SDS011;11825;51.898;8.202;2022-12-08T06:38:06;38.60;;;26.93;;
14939;SDS011;11825;51.898;8.202;2022-12-08T06:43:13;35.60;;;25.37;;
14939;SDS011;11825;51.898;8.202;2022-12-08T06:48:16;36.87;;;27.80;;
14939;SDS011;11825;51.898;8.202;2022-12-08T06:53:18;40.23;;;27.93;;
14939;SDS011;11825;51.898;8.202;2022-12-08T06:58:19;36.73;;;25.87;;
14939;SDS011;11825;51.898;8.202;2022-12-08T07:03:21;34.80;;;23.37;;
14939;SDS011;11825;51.898;8.202;2022-12-08T07:08:23;35.50;;;24.37;;
14939;SDS011;11825;51.898;8.202;2022-12-08T07:13:25;31.17;;;22.83;;
14939;SDS011;11825;51.898;8.202;2022-12-08T07:18:27;31.23;;;21.60;;
14939;SDS011;11825;51.898;8.202;2022-12-08T07:23:28;30.00;;;20.83;;
14939;SDS011;11825;51.898;8.202;2022-12-08T07:28:33;34.27;;;21.30;;
14939;SDS011;11825;51.898;8.202;2022-12-08T07:33:36;28.33;;;18.13;;
14939;SDS011;11825;51.898;8.202;2022-12-08T07:38:50;30.23;;;20.27;;
14939;SDS011;11825;51.898;8.202;2022-12-08T07:43:56;32.30;;;19.13;;
14939;SDS011;11825;51.898;8.202;2022-12-08T07:48:58;24.30;;;17.83;;
14939;SDS011;11825;51.898;8.202;2022-12-08T07:54:00;24.20;;;17.10;;
14939;SDS011;11825;51.898;8.202;2022-12-08T07:59:09;25.07;;;16.60;;
14939;SDS011;11825;51.898;8.202;2022-12-08T08:04:11;22.53;;;16.20;;
14939;SDS011;11825;51.898;8.202;2022-12-08T08:09:12;22.17;;;15.63;;
14939;SDS011;11825;51.898;8.202;2022-12-08T08:14:14;24.67;;;18.30;;
14939;SDS011;11825;51.898;8.202;2022-12-08T08:19:16;21.50;;;16.23;;
14939;SDS011;11825;51.898;8.202;2022-12-08T08:24:22;23.17;;;16.03;;
14939;SDS011;11825;51.898;8.202;2022-12-08T08:29:24;22.50;;;15.87;;
14939;SDS011;11825;51.898;8.202;2022-12-08T08:34:26;19.70;;;14.53;;
14939;SDS011;11825;51.898;8.202;2022-12-08T08:39:31;20.47;;;15.10;;
14939;SDS011;11825;51.898;8.202;2022-12-08T08:44:33;19.33;;;14.67;;
14939;SDS011;11825;51.898;8.202;2022-12-08T08:49:37;19.93;;;15.90;;
14939;SDS011;11825;51.898;8.202;2022-12-08T08:54:44;18.90;;;14.13;;
14939;SDS011;11825;51.898;8.202;2022-12-08T08:59:46;19.40;;;13.93;;
14939;SDS011;11825;51.898;8.202;2022-12-08T09:04:48;18.43;;;13.80;;
14939;SDS011;11825;51.898;8.202;2022-12-08T09:09:53;17.20;;;14.10;;
14939;SDS011;11825;51.898;8.202;2022-12-08T09:15:05;15.57;;;11.50;;
14939;SDS011;11825;51.898;8.202;2022-12-08T09:20:07;15.70;;;12.60;;
14939;SDS011;11825;51.898;8.202;2022-12-08T09:25:09;15.87;;;12.00;;
14939;SDS011;11825;51.898;8.202;2022-12-08T09:30:11;15.00;;;12.60;;
14939;SDS011;11825;51.898;8.202;2022-12-08T09:35:15;15.23;;;10.93;;
14939;SDS011;11825;51.898;8.202;2022-12-08T09:40:18;13.60;;;10.53;;
14939;SDS011;11825;51.898;8.202;2022-12-08T09:45:21;9.90;;;7.77;;
14939;SDS011;11825;51.898;8.202;2022-12-08T09:50:32;11.10;;;8.43;;
14939;SDS011;11825;51.898;8.202;2022-12-08T09:55:38;8.70;;;7.00;;
14939;SDS011;11825;51.898;8.202;2022-12-08T10:01:01;8.63;;;6.87;;
14939;SDS011;11825;51.898;8.202;2022-12-08T10:06:14;6.87;;;5.77;;
14939;SDS011;11825;51.898;8.202;2022-12-08T10:12:08;7.83;;;6.40;;
14939;SDS011;11825;51.898;8.202;2022-12-08T10:17:34;9.10;;;7.07;;
14939;SDS011;11825;51.898;8.202;2022-12-08T10:22:49;10.17;;;6.63;;
14939;SDS011;11825;51.898;8.202;2022-12-08T10:28:20;9.77;;;6.10;;
14939;SDS011;11825;51.898;8.202;2022-12-08T10:33:22;10.67;;;5.97;;
14939;SDS011;11825;51.898;8.202;2022-12-08T10:38:35;9.07;;;5.40;;
14939;SDS011;11825;51.898;8.202;2022-12-08T10:43:56;5.97;;;4.50;;
14939;SDS011;11825;51.898;8.202;2022-12-08T10:54:04;5.93;;;4.27;;
14939;SDS011;11825;51.898;8.202;2022-12-08T10:59:36;7.23;;;5.30;;
14939;SDS011;11825;51.898;8.202;2022-12-08T11:04:42;5.73;;;4.17;;
14939;SDS011;11825;51.898;8.202;2022-12-08T11:09:47;5.30;;;4.53;;
14939;SDS011;11825;51.898;8.202;2022-12-08T11:14:55;5.60;;;4.70;;
14939;SDS011;11825;51.898;8.202;2022-12-08T11:25:11;5.93;;;4.50;;
14939;SDS011;11825;51.898;8.202;2022-12-08T11:30:20;5.43;;;4.50;;
14939;SDS011;11825;51.898;8.202;2022-12-08T11:40:36;5.70;;;5.20;;
14939;SDS011;11825;51.898;8.202;2022-12-08T11:45:51;5.80;;;5.03;;
14939;SDS011;11825;51.898;8.202;2022-12-08T11:56:07;5.90;;;5.13;;
14939;SDS011;11825;51.898;8.202;2022-12-08T12:01:28;6.37;;;5.67;;
14939;SDS011;11825;51.898;8.202;2022-12-08T12:12:00;8.83;;;6.50;;
14939;SDS011;11825;51.898;8.202;2022-12-08T12:29:02;6.03;;;4.33;;
14939;SDS011;11825;51.898;8.202;2022-12-08T12:39:27;3.83;;;3.50;;
14939;SDS011;11825;51.898;8.202;2022-12-08T13:00:29;4.43;;;3.90;;
14939;SDS011;11825;51.898;8.202;2022-12-08T13:05:33;5.57;;;4.83;;
14939;SDS011;11825;51.898;8.202;2022-12-08T13:11:12;4.20;;;3.67;;
14939;SDS011;11825;51.898;8.202;2022-12-08T13:16:16;4.20;;;3.80;;
14939;SDS011;11825;51.898;8.202;2022-12-08T13:21:32;5.63;;;3.40;;
14939;SDS011;11825;51.898;8.202;2022-12-08T13:26:45;5.23;;;4.73;;
14939;SDS011;11825;51.898;8.202;2022-12-08T13:31:52;5.10;;;3.33;;
14939;SDS011;11825;51.898;8.202;2022-12-08T13:47:56;7.03;;;4.07;;
14939;SDS011;11825;51.898;8.202;2022-12-08T13:53:38;9.43;;;6.33;;
14939;SDS011;11825;51.898;8.202;2022-12-08T13:59:08;10.10;;;5.57;;
14939;SDS011;11825;51.898;8.202;2022-12-08T14:04:42;7.17;;;6.20;;
14939;SDS011;11825;51.898;8.202;2022-12-08T14:10:18;8.47;;;5.83;;
14939;SDS011;11825;51.898;8.202;2022-12-08T14:15:32;14.30;;;9.93;;
14939;SDS011;11825;51.898;8.202;2022-12-08T14:20:38;14.87;;;8.37;;
14939;SDS011;11825;51.898;8.202;2022-12-08T14:26:06;14.27;;;9.17;;
14939;SDS011;11825;51.898;8.202;2022-12-08T14:31:10;15.40;;;10.03;;
14939;SDS011;11825;51.898;8.202;2022-12-08T14:36:15;15.37;;;9.37;;
14939;SDS011;11825;51.898;8.202;2022-12-08T14:41:23;10.10;;;7.23;;
14939;SDS011;11825;51.898;8.202;2022-12-08T14:46:27;8.60;;;7.03;;
14939;SDS011;11825;51.898;8.202;2022-12-08T14:51:29;10.83;;;8.57;;
14939;SDS011;11825;51.898;8.202;2022-12-08T15:01:38;16.50;;;11.10;;
14939;SDS011;11825;51.898;8.202;2022-12-08T15:06:52;13.37;;;10.13;;
14939;SDS011;11825;51.898;8.202;2022-12-08T15:12:02;10.47;;;8.30;;
14939;SDS011;11825;51.898;8.202;2022-12-08T15:17:43;9.43;;;8.03;;
14939;SDS011;11825;51.898;8.202;2022-12-08T15:22:58;9.77;;;7.57;;
14939;SDS011;11825;51.898;8.202;2022-12-08T15:28:02;9.07;;;7.50;;
14939;SDS011;11825;51.898;8.202;2022-12-08T15:33:10;9.37;;;7.37;;
14939;SDS011;11825;51.898;8.202;2022-12-08T15:38:19;8.17;;;6.43;;
14939;SDS011;11825;51.898;8.202;2022-12-08T15:43:41;10.90;;;9.80;;
14939;SDS011;11825;51.898;8.202;2022-12-08T15:48:43;13.60;;;11.93;;
14939;SDS011;11825;51.898;8.202;2022-12-08T15:53:45;13.33;;;10.60;;
14939;SDS011;11825;51.898;8.202;2022-12-08T15:58:47;12.17;;;10.83;;
14939;SDS011;11825;51.898;8.202;2022-12-08T16:03:54;11.40;;;9.97;;
14939;SDS011;11825;51.898;8.202;2022-12-08T16:09:22;23.40;;;19.40;;
14939;SDS011;11825;51.898;8.202;2022-12-08T16:14:29;21.77;;;16.57;;
14939;SDS011;11825;51.898;8.202;2022-12-08T16:19:51;13.77;;;12.20;;
14939;SDS011;11825;51.898;8.202;2022-12-08T16:24:53;14.97;;;12.80;;
14939;SDS011;11825;51.898;8.202;2022-12-08T16:30:15;15.00;;;13.40;;
14939;SDS011;11825;51.898;8.202;2022-12-08T16:35:27;20.20;;;16.60;;
14939;SDS011;11825;51.898;8.202;2022-12-08T16:40:34;20.17;;;15.83;;
14939;SDS011;11825;51.898;8.202;2022-12-08T16:46:01;23.50;;;18.47;;
14939;SDS011;11825;51.898;8.202;2022-12-08T16:51:03;29.33;;;22.83;;
14939;SDS011;11825;51.898;8.202;2022-12-08T16:56:18;30.70;;;23.50;;
14939;SDS011;11825;51.898;8.202;2022-12-08T17:01:34;29.67;;;23.47;;
14939;SDS011;11825;51.898;8.202;2022-12-08T17:06:42;36.83;;;25.00;;
14939;SDS011;11825;51.898;8.202;2022-12-08T17:11:44;33.57;;;23.37;;
14939;SDS011;11825;51.898;8.202;2022-12-08T17:16:46;31.90;;;22.80;;
14939;SDS011;11825;51.898;8.202;2022-12-08T17:21:48;39.10;;;25.17;;
14939;SDS011;11825;51.898;8.202;2022-12-08T17:26:55;38.37;;;25.00;;
14939;SDS011;11825;51.898;8.202;2022-12-08T17:32:04;33.97;;;22.07;;
14939;SDS011;11825;51.898;8.202;2022-12-08T17:37:07;33.13;;;22.90;;
14939;SDS011;11825;51.898;8.202;2022-12-08T17:42:09;30.70;;;21.07;;
14939;SDS011;11825;51.898;8.202;2022-12-08T17:47:11;37.50;;;24.83;;
14939;SDS011;11825;51.898;8.202;2022-12-08T17:52:14;39.33;;;24.93;;
14939;SDS011;11825;51.898;8.202;2022-12-08T17:57:19;33.00;;;21.97;;
14939;SDS011;11825;51.898;8.202;2022-12-08T18:02:20;33.17;;;22.67;;
14939;SDS011;11825;51.898;8.202;2022-12-08T18:07:22;37.13;;;26.13;;
14939;SDS011;11825;51.898;8.202;2022-12-08T18:12:24;39.67;;;25.37;;
14939;SDS011;11825;51.898;8.202;2022-12-08T18:17:29;33.70;;;22.63;;
14939;SDS011;11825;51.898;8.202;2022-12-08T18:22:31;36.57;;;25.07;;
14939;SDS011;11825;51.898;8.202;2022-12-08T18:27:41;35.00;;;23.63;;
14939;SDS011;11825;51.898;8.202;2022-12-08T18:32:44;33.50;;;23.80;;
14939;SDS011;11825;51.898;8.202;2022-12-08T18:37:46;33.30;;;23.93;;
14939;SDS011;11825;51.898;8.202;2022-12-08T18:42:48;29.83;;;22.87;;
14939;SDS011;11825;51.898;8.202;2022-12-08T18:47:54;32.70;;;22.30;;
14939;SDS011;11825;51.898;8.202;2022-12-08T18:52:56;33.77;;;23.77;;
14939;SDS011;11825;51.898;8.202;2022-12-08T18:57:58;34.77;;;23.83;;
14939;SDS011;11825;51.898;8.202;2022-12-08T19:03:00;39.63;;;27.67;;
14939;SDS011;11825;51.898;8.202;2022-12-08T19:08:03;38.50;;;26.23;;
14939;SDS011;11825;51.898;8.202;2022-12-08T19:13:10;34.77;;;25.17;;
14939;SDS011;11825;51.898;8.202;2022-12-08T19:18:12;37.13;;;26.47;;
14939;SDS011;11825;51.898;8.202;2022-12-08T19:23:17;38.90;;;26.57;;
14939;SDS011;11825;51.898;8.202;2022-12-08T19:28:20;36.70;;;26.07;;
14939;SDS011;11825;51.898;8.202;2022-12-08T19:33:28;37.47;;;24.83;;
14939;SDS011;11825;51.898;8.202;2022-12-08T19:38:30;43.33;;;29.07;;
14939;SDS011;11825;51.898;8.202;2022-12-08T19:43:52;45.43;;;28.50;;
14939;SDS011;11825;51.898;8.202;2022-12-08T19:49:25;46.20;;;28.27;;
14939;SDS011;11825;51.898;8.202;2022-12-08T20:13:31;42.83;;;32.00;;
14939;SDS011;11825;51.898;8.202;2022-12-08T20:18:53;46.97;;;29.93;;
14939;SDS011;11825;51.898;8.202;2022-12-08T20:24:21;49.00;;;28.90;;
14939;SDS011;11825;51.898;8.202;2022-12-08T20:29:59;45.40;;;27.97;;
14939;SDS011;11825;51.898;8.202;2022-12-08T20:35:21;52.47;;;30.73;;
14939;SDS011;11825;51.898;8.202;2022-12-08T20:40:46;45.57;;;28.47;;
14939;SDS011;11825;51.898;8.202;2022-12-08T20:46:06;42.27;;;27.33;;
14939;SDS011;11825;51.898;8.202;2022-12-08T20:51:32;39.57;;;26.23;;
14939;SDS011;11825;51.898;8.202;2022-12-08T20:56:54;39.80;;;25.30;;
14939;SDS011;11825;51.898;8.202;2022-12-08T21:02:02;44.63;;;27.43;;
14939;SDS011;11825;51.898;8.202;2022-12-08T21:07:47;35.73;;;25.33;;
14939;SDS011;11825;51.898;8.202;2022-12-08T21:12:51;36.50;;;25.70;;
14939;SDS011;11825;51.898;8.202;2022-12-08T21:17:54;35.90;;;24.93;;
14939;SDS011;11825;51.898;8.202;2022-12-08T21:22:59;35.27;;;23.53;;
14939;SDS011;11825;51.898;8.202;2022-12-08T21:28:06;32.20;;;23.27;;
14939;SDS011;11825;51.898;8.202;2022-12-08T21:33:13;29.30;;;21.70;;
14939;SDS011;11825;51.898;8.202;2022-12-08T21:38:15;30.07;;;22.57;;
14939;SDS011;11825;51.898;8.202;2022-12-08T21:43:18;31.87;;;20.87;;
14939;SDS011;11825;51.898;8.202;2022-12-08T21:48:20;28.73;;;20.33;;
14939;SDS011;11825;51.898;8.202;2022-12-08T21:53:22;23.70;;;17.40;;
14939;SDS011;11825;51.898;8.202;2022-12-08T21:58:26;25.03;;;19.60;;
14939;SDS011;11825;51.898;8.202;2022-12-08T22:03:31;25.80;;;20.07;;
14939;SDS011;11825;51.898;8.202;2022-12-08T22:08:37;25.13;;;16.80;;
14939;SDS011;11825;51.898;8.202;2022-12-08T22:13:40;25.90;;;18.47;;
14939;SDS011;11825;51.898;8.202;2022-12-08T22:18:42;25.60;;;17.23;;
14939;SDS011;11825;51.898;8.202;2022-12-08T22:23:51;23.00;;;17.73;;
14939;SDS011;11825;51.898;8.202;2022-12-08T22:28:53;21.63;;;16.23;;
14939;SDS011;11825;51.898;8.202;2022-12-08T22:33:56;25.07;;;17.60;;
14939;SDS011;11825;51.898;8.202;2022-12-08T22:38:59;21.83;;;17.60;;
14939;SDS011;11825;51.898;8.202;2022-12-08T22:44:08;21.97;;;16.17;;
14939;SDS011;11825;51.898;8.202;2022-12-08T22:49:10;25.00;;;18.47;;
14939;SDS011;11825;51.898;8.202;2022-12-08T22:54:12;23.50;;;18.00;;
14939;SDS011;11825;51.898;8.202;2022-12-08T22:59:14;24.73;;;18.07;;
14939;SDS011;11825;51.898;8.202;2022-12-08T23:04:16;23.87;;;16.83;;
14939;SDS011;11825;51.898;8.202;2022-12-08T23:09:18;28.83;;;18.43;;
14939;SDS011;11825;51.898;8.202;2022-12-08T23:14:21;24.40;;;16.93;;
14939;SDS011;11825;51.898;8.202;2022-12-08T23:19:27;24.73;;;17.93;;
14939;SDS011;11825;51.898;8.202;2022-12-08T23:24:28;23.27;;;16.77;;
14939;SDS011;11825;51.898;8.202;2022-12-08T23:29:30;24.90;;;18.27;;
14939;SDS011;11825;51.898;8.202;2022-12-08T23:34:33;26.90;;;17.27;;
14939;SDS011;11825;51.898;8.202;2022-12-08T23:39:35;25.97;;;17.33;;
14939;SDS011;11825;51.898;8.202;2022-12-08T23:44:39;26.50;;;16.93;;
14939;SDS011;11825;51.898;8.202;2022-12-08T23:49:44;21.07;;;16.07;;
14939;SDS011;11825;51.898;8.202;2022-12-08T23:54:53;24.47;;;16.40;;
14939;SDS011;11825;51.898;8.202;2022-12-08T23:59:54;27.83;;;18.30;;
